Terminal Aerodrome Forecast
Issued by NWS Wilmington, OH

Home | Current Version | Previous Version | Text Only | Print | Product List | Glossary On
Versions: 1 2 3 4 5 6 7 8 9 10 11 12 13 14 15 16 17 18
984
FTUS41 KILN 242335
TAFCVG
TAF
KCVG 242335Z 2500/2606 09013KT P6SM BKN060
     FM250200 09008KT P6SM OVC040
     FM250800 10005KT P6SM OVC025
     FM251500 13006KT P6SM BKN035
     FM251600 14007KT P6SM BKN050
     FM260100 16006KT P6SM BKN090=

USA.gov is the U.S. government's official web portal to all federal, state and local government web resources and services.